sensor_id;sensor_type;location;lat;lon;timestamp;temperature;humidity
11043;DHT22;5574;48.786;10.120;2023-04-06T00:00:04;2.30;91.70
11043;DHT22;5574;48.786;10.120;2023-04-06T00:02:34;2.30;91.90
11043;DHT22;5574;48.786;10.120;2023-04-06T00:05:01;2.30;91.70
11043;DHT22;5574;48.786;10.120;2023-04-06T00:07:28;2.30;91.70
11043;DHT22;5574;48.786;10.120;2023-04-06T00:09:55;2.30;91.60
11043;DHT22;5574;48.786;10.120;2023-04-06T00:12:21;2.40;91.70
11043;DHT22;5574;48.786;10.120;2023-04-06T00:14:48;2.30;91.80
11043;DHT22;5574;48.786;10.120;2023-04-06T00:17:15;2.30;91.90
11043;DHT22;5574;48.786;10.120;2023-04-06T00:19:43;2.30;92.00
11043;DHT22;5574;48.786;10.120;2023-04-06T00:22:10;2.20;92.00
11043;DHT22;5574;48.786;10.120;2023-04-06T00:24:37;2.10;91.90
11043;DHT22;5574;48.786;10.120;2023-04-06T00:27:03;2.10;92.10
11043;DHT22;5574;48.786;10.120;2023-04-06T00:29:30;2.10;92.20
11043;DHT22;5574;48.786;10.120;2023-04-06T00:31:57;2.10;92.30
11043;DHT22;5574;48.786;10.120;2023-04-06T00:34:23;2.10;92.30
11043;DHT22;5574;48.786;10.120;2023-04-06T00:36:51;2.00;92.30
11043;DHT22;5574;48.786;10.120;2023-04-06T00:39:18;2.00;92.40
11043;DHT22;5574;48.786;10.120;2023-04-06T00:41:49;2.00;92.50
11043;DHT22;5574;48.786;10.120;2023-04-06T00:44:15;2.00;92.50
11043;DHT22;5574;48.786;10.120;2023-04-06T00:46:42;2.00;92.50
11043;DHT22;5574;48.786;10.120;2023-04-06T00:49:09;2.00;92.60
11043;DHT22;5574;48.786;10.120;2023-04-06T00:51:36;2.00;92.50
11043;DHT22;5574;48.786;10.120;2023-04-06T00:54:04;2.00;92.60
11043;DHT22;5574;48.786;10.120;2023-04-06T00:56:32;2.00;92.60
11043;DHT22;5574;48.786;10.120;2023-04-06T00:58:58;1.90;92.80
11043;DHT22;5574;48.786;10.120;2023-04-06T01:01:25;2.00;92.60
11043;DHT22;5574;48.786;10.120;2023-04-06T01:03:52;1.90;92.60
11043;DHT22;5574;48.786;10.120;2023-04-06T01:06:19;2.00;92.70
11043;DHT22;5574;48.786;10.120;2023-04-06T01:08:46;1.90;92.70
11043;DHT22;5574;48.786;10.120;2023-04-06T01:11:14;1.90;92.60
11043;DHT22;5574;48.786;10.120;2023-04-06T01:13:41;1.90;92.70
11043;DHT22;5574;48.786;10.120;2023-04-06T01:16:08;1.90;92.60
11043;DHT22;5574;48.786;10.120;2023-04-06T01:18:35;1.80;92.70
11043;DHT22;5574;48.786;10.120;2023-04-06T01:21:02;1.80;92.70
11043;DHT22;5574;48.786;10.120;2023-04-06T01:23:30;1.70;92.90
11043;DHT22;5574;48.786;10.120;2023-04-06T01:25:56;1.60;92.90
11043;DHT22;5574;48.786;10.120;2023-04-06T01:28:23;1.60;93.00
11043;DHT22;5574;48.786;10.120;2023-04-06T01:30:50;1.60;93.20
11043;DHT22;5574;48.786;10.120;2023-04-06T01:33:17;1.60;93.20
11043;DHT22;5574;48.786;10.120;2023-04-06T01:35:43;1.60;93.10
11043;DHT22;5574;48.786;10.120;2023-04-06T01:38:10;1.60;93.10
11043;DHT22;5574;48.786;10.120;2023-04-06T01:40:38;1.60;93.00
11043;DHT22;5574;48.786;10.120;2023-04-06T01:43:05;1.60;93.00
11043;DHT22;5574;48.786;10.120;2023-04-06T01:45:31;1.60;93.20
11043;DHT22;5574;48.786;10.120;2023-04-06T01:47:58;1.60;93.10
11043;DHT22;5574;48.786;10.120;2023-04-06T01:50:25;1.60;93.00
11043;DHT22;5574;48.786;10.120;2023-04-06T01:52:52;1.50;93.10
11043;DHT22;5574;48.786;10.120;2023-04-06T01:55:18;1.50;93.00
11043;DHT22;5574;48.786;10.120;2023-04-06T01:57:46;1.50;93.20
11043;DHT22;5574;48.786;10.120;2023-04-06T02:00:14;1.40;93.20
11043;DHT22;5574;48.786;10.120;2023-04-06T02:02:41;1.50;93.20
11043;DHT22;5574;48.786;10.120;2023-04-06T02:05:08;1.40;93.20
11043;DHT22;5574;48.786;10.120;2023-04-06T02:07:35;1.40;93.30
11043;DHT22;5574;48.786;10.120;2023-04-06T02:10:02;1.40;93.40
11043;DHT22;5574;48.786;10.120;2023-04-06T02:12:29;1.40;93.40
11043;DHT22;5574;48.786;10.120;2023-04-06T02:14:57;1.40;93.30
11043;DHT22;5574;48.786;10.120;2023-04-06T02:17:24;1.30;93.30
11043;DHT22;5574;48.786;10.120;2023-04-06T02:19:50;1.30;93.40
11043;DHT22;5574;48.786;10.120;2023-04-06T02:22:17;1.30;93.60
11043;DHT22;5574;48.786;10.120;2023-04-06T02:24:43;1.30;93.40
11043;DHT22;5574;48.786;10.120;2023-04-06T02:27:10;1.30;93.40
11043;DHT22;5574;48.786;10.120;2023-04-06T02:29:37;1.30;93.40
11043;DHT22;5574;48.786;10.120;2023-04-06T02:32:05;1.30;93.40
11043;DHT22;5574;48.786;10.120;2023-04-06T02:34:32;1.30;93.70
11043;DHT22;5574;48.786;10.120;2023-04-06T02:36:59;1.30;93.70
11043;DHT22;5574;48.786;10.120;2023-04-06T02:39:26;1.30;93.70
11043;DHT22;5574;48.786;10.120;2023-04-06T02:41:52;1.20;93.60
11043;DHT22;5574;48.786;10.120;2023-04-06T02:44:19;1.20;93.60
11043;DHT22;5574;48.786;10.120;2023-04-06T02:46:46;1.20;93.60
11043;DHT22;5574;48.786;10.120;2023-04-06T02:49:14;1.20;93.60
11043;DHT22;5574;48.786;10.120;2023-04-06T02:51:40;1.10;93.60
11043;DHT22;5574;48.786;10.120;2023-04-06T02:54:07;1.00;93.60
11043;DHT22;5574;48.786;10.120;2023-04-06T02:56:34;1.00;93.70
11043;DHT22;5574;48.786;10.120;2023-04-06T02:59:00;1.00;93.70
11043;DHT22;5574;48.786;10.120;2023-04-06T03:01:27;0.90;93.90
11043;DHT22;5574;48.786;10.120;2023-04-06T03:03:54;0.90;94.00
11043;DHT22;5574;48.786;10.120;2023-04-06T03:06:22;0.90;94.00
11043;DHT22;5574;48.786;10.120;2023-04-06T03:08:49;0.80;94.00
11043;DHT22;5574;48.786;10.120;2023-04-06T03:11:15;0.70;94.20
11043;DHT22;5574;48.786;10.120;2023-04-06T03:13:42;0.70;94.60
11043;DHT22;5574;48.786;10.120;2023-04-06T03:16:09;0.60;94.30
11043;DHT22;5574;48.786;10.120;2023-04-06T03:18:35;0.70;94.40
11043;DHT22;5574;48.786;10.120;2023-04-06T03:21:02;0.70;94.50
11043;DHT22;5574;48.786;10.120;2023-04-06T03:23:30;0.60;94.40
11043;DHT22;5574;48.786;10.120;2023-04-06T03:25:57;0.60;94.50
11043;DHT22;5574;48.786;10.120;2023-04-06T03:28:23;0.50;94.70
11043;DHT22;5574;48.786;10.120;2023-04-06T03:30:50;0.50;94.70
11043;DHT22;5574;48.786;10.120;2023-04-06T03:33:17;0.50;94.80
11043;DHT22;5574;48.786;10.120;2023-04-06T03:35:43;0.50;95.00
11043;DHT22;5574;48.786;10.120;2023-04-06T03:38:10;0.50;95.00
11043;DHT22;5574;48.786;10.120;2023-04-06T03:40:38;0.50;95.00
11043;DHT22;5574;48.786;10.120;2023-04-06T03:43:05;0.40;94.90
11043;DHT22;5574;48.786;10.120;2023-04-06T03:45:32;0.40;95.00
11043;DHT22;5574;48.786;10.120;2023-04-06T03:47:58;0.40;95.00
11043;DHT22;5574;48.786;10.120;2023-04-06T03:50:25;0.30;94.90
11043;DHT22;5574;48.786;10.120;2023-04-06T03:52:52;0.30;95.10
11043;DHT22;5574;48.786;10.120;2023-04-06T03:55:18;0.20;95.20
11043;DHT22;5574;48.786;10.120;2023-04-06T03:57:46;0.20;95.30
11043;DHT22;5574;48.786;10.120;2023-04-06T04:00:14;0.20;95.30
11043;DHT22;5574;48.786;10.120;2023-04-06T04:02:40;0.20;95.30
11043;DHT22;5574;48.786;10.120;2023-04-06T04:05:08;0.20;95.40
11043;DHT22;5574;48.786;10.120;2023-04-06T04:07:34;0.10;95.50
11043;DHT22;5574;48.786;10.120;2023-04-06T04:10:01;0.10;95.60
11043;DHT22;5574;48.786;10.120;2023-04-06T04:12:28;0.10;95.70
11043;DHT22;5574;48.786;10.120;2023-04-06T04:14:56;0.10;95.80
11043;DHT22;5574;48.786;10.120;2023-04-06T04:17:22;0.10;95.60
11043;DHT22;5574;48.786;10.120;2023-04-06T04:19:49;0.20;95.80
11043;DHT22;5574;48.786;10.120;2023-04-06T04:22:16;0.20;95.70
11043;DHT22;5574;48.786;10.120;2023-04-06T04:24:42;0.20;95.70
11043;DHT22;5574;48.786;10.120;2023-04-06T04:27:09;0.20;95.40
11043;DHT22;5574;48.786;10.120;2023-04-06T04:29:36;0.20;95.50
11043;DHT22;5574;48.786;10.120;2023-04-06T04:32:04;0.20;95.40
11043;DHT22;5574;48.786;10.120;2023-04-06T04:34:31;0.20;95.50
11043;DHT22;5574;48.786;10.120;2023-04-06T04:36:58;0.20;95.40
11043;DHT22;5574;48.786;10.120;2023-04-06T04:39:25;0.20;95.30
11043;DHT22;5574;48.786;10.120;2023-04-06T04:41:52;0.10;95.70
11043;DHT22;5574;48.786;10.120;2023-04-06T04:44:19;0.10;95.80
11043;DHT22;5574;48.786;10.120;2023-04-06T04:46:45;0.00;95.50
11043;DHT22;5574;48.786;10.120;2023-04-06T04:49:13;0.00;95.40
11043;DHT22;5574;48.786;10.120;2023-04-06T04:51:40;0.00;95.60
11043;DHT22;5574;48.786;10.120;2023-04-06T04:54:07;0.00;95.50
11043;DHT22;5574;48.786;10.120;2023-04-06T04:56:33;0.00;95.60
11043;DHT22;5574;48.786;10.120;2023-04-06T04:59:00;0.00;95.70
11043;DHT22;5574;48.786;10.120;2023-04-06T05:01:27;0.00;95.60
11043;DHT22;5574;48.786;10.120;2023-04-06T05:03:54;0.00;95.70
11043;DHT22;5574;48.786;10.120;2023-04-06T05:06:22;0.00;95.80
11043;DHT22;5574;48.786;10.120;2023-04-06T05:08:48;-0.10;95.70
11043;DHT22;5574;48.786;10.120;2023-04-06T05:11:15;-0.10;95.90
11043;DHT22;5574;48.786;10.120;2023-04-06T05:13:42;-0.10;95.80
11043;DHT22;5574;48.786;10.120;2023-04-06T05:16:09;-0.10;95.80
11043;DHT22;5574;48.786;10.120;2023-04-06T05:18:35;-0.10;96.00
11043;DHT22;5574;48.786;10.120;2023-04-06T05:21:02;-0.10;96.00
11043;DHT22;5574;48.786;10.120;2023-04-06T05:23:30;-0.20;95.90
11043;DHT22;5574;48.786;10.120;2023-04-06T05:25:57;-0.20;95.90
11043;DHT22;5574;48.786;10.120;2023-04-06T05:28:24;-0.20;96.00
11043;DHT22;5574;48.786;10.120;2023-04-06T05:30:51;-0.20;96.00
11043;DHT22;5574;48.786;10.120;2023-04-06T05:33:17;-0.20;96.00
11043;DHT22;5574;48.786;10.120;2023-04-06T05:35:44;-0.20;96.10
11043;DHT22;5574;48.786;10.120;2023-04-06T05:38:11;-0.10;96.20
11043;DHT22;5574;48.786;10.120;2023-04-06T05:40:39;-0.10;96.20
11043;DHT22;5574;48.786;10.120;2023-04-06T05:43:06;-0.10;96.20
11043;DHT22;5574;48.786;10.120;2023-04-06T05:45:33;-0.10;96.20
11043;DHT22;5574;48.786;10.120;2023-04-06T05:48:00;0.00;96.40
11043;DHT22;5574;48.786;10.120;2023-04-06T05:50:27;0.00;96.40
11043;DHT22;5574;48.786;10.120;2023-04-06T05:52:54;0.10;96.20
11043;DHT22;5574;48.786;10.120;2023-04-06T05:55:21;0.10;96.10
11043;DHT22;5574;48.786;10.120;2023-04-06T05:57:49;0.20;96.20
11043;DHT22;5574;48.786;10.120;2023-04-06T06:00:16;0.20;96.20
11043;DHT22;5574;48.786;10.120;2023-04-06T06:02:42;0.30;96.30
11043;DHT22;5574;48.786;10.120;2023-04-06T06:05:10;0.30;96.10
11043;DHT22;5574;48.786;10.120;2023-04-06T06:07:36;0.40;96.10
11043;DHT22;5574;48.786;10.120;2023-04-06T06:10:04;0.50;96.10
11043;DHT22;5574;48.786;10.120;2023-04-06T06:12:30;0.60;96.20
11043;DHT22;5574;48.786;10.120;2023-04-06T06:14:58;0.60;96.00
11043;DHT22;5574;48.786;10.120;2023-04-06T06:17:25;0.70;96.20
11043;DHT22;5574;48.786;10.120;2023-04-06T06:19:52;0.80;95.90
11043;DHT22;5574;48.786;10.120;2023-04-06T06:22:19;0.90;96.00
11043;DHT22;5574;48.786;10.120;2023-04-06T06:24:46;0.90;95.80
11043;DHT22;5574;48.786;10.120;2023-04-06T06:27:12;1.00;96.00
11043;DHT22;5574;48.786;10.120;2023-04-06T06:29:39;1.10;95.70
11043;DHT22;5574;48.786;10.120;2023-04-06T06:32:07;1.20;95.90
11043;DHT22;5574;48.786;10.120;2023-04-06T06:34:35;1.30;95.80
11043;DHT22;5574;48.786;10.120;2023-04-06T06:37:01;1.40;95.60
11043;DHT22;5574;48.786;10.120;2023-04-06T06:39:28;1.50;95.60
11043;DHT22;5574;48.786;10.120;2023-04-06T06:41:55;1.60;95.70
11043;DHT22;5574;48.786;10.120;2023-04-06T06:44:22;1.70;95.60
11043;DHT22;5574;48.786;10.120;2023-04-06T06:46:48;1.80;95.50
11043;DHT22;5574;48.786;10.120;2023-04-06T06:49:16;1.90;95.40
11043;DHT22;5574;48.786;10.120;2023-04-06T06:51:44;2.10;95.50
11043;DHT22;5574;48.786;10.120;2023-04-06T06:54:11;2.10;94.60
11043;DHT22;5574;48.786;10.120;2023-04-06T06:56:37;2.30;94.70
11043;DHT22;5574;48.786;10.120;2023-04-06T06:59:04;2.40;94.80
11043;DHT22;5574;48.786;10.120;2023-04-06T07:01:32;2.60;94.60
11043;DHT22;5574;48.786;10.120;2023-04-06T07:03:59;2.70;94.30
11043;DHT22;5574;48.786;10.120;2023-04-06T07:06:27;2.90;94.30
11043;DHT22;5574;48.786;10.120;2023-04-06T07:08:53;3.10;94.40
11043;DHT22;5574;48.786;10.120;2023-04-06T07:11:20;3.30;94.00
11043;DHT22;5574;48.786;10.120;2023-04-06T07:13:47;3.40;93.40
11043;DHT22;5574;48.786;10.120;2023-04-06T07:16:13;3.60;93.50
11043;DHT22;5574;48.786;10.120;2023-04-06T07:18:40;3.80;93.40
11043;DHT22;5574;48.786;10.120;2023-04-06T07:21:07;4.10;92.80
11043;DHT22;5574;48.786;10.120;2023-04-06T07:23:35;4.30;92.60
11043;DHT22;5574;48.786;10.120;2023-04-06T07:26:02;4.60;92.00
11043;DHT22;5574;48.786;10.120;2023-04-06T07:28:29;4.80;91.80
11043;DHT22;5574;48.786;10.120;2023-04-06T07:30:55;5.00;91.40
11043;DHT22;5574;48.786;10.120;2023-04-06T07:33:22;5.20;91.10
11043;DHT22;5574;48.786;10.120;2023-04-06T07:35:49;5.40;90.80
11043;DHT22;5574;48.786;10.120;2023-04-06T07:38:16;5.60;91.00
11043;DHT22;5574;48.786;10.120;2023-04-06T07:40:44;5.80;90.30
11043;DHT22;5574;48.786;10.120;2023-04-06T07:43:10;6.00;90.00
11043;DHT22;5574;48.786;10.120;2023-04-06T07:45:37;6.20;90.00
11043;DHT22;5574;48.786;10.120;2023-04-06T07:48:04;6.40;89.50
11043;DHT22;5574;48.786;10.120;2023-04-06T07:50:30;6.50;90.30
11043;DHT22;5574;48.786;10.120;2023-04-06T07:52:57;6.70;89.00
11043;DHT22;5574;48.786;10.120;2023-04-06T07:55:24;6.90;87.90
11043;DHT22;5574;48.786;10.120;2023-04-06T07:57:52;7.10;88.50
11043;DHT22;5574;48.786;10.120;2023-04-06T08:00:19;7.10;87.60
11043;DHT22;5574;48.786;10.120;2023-04-06T08:02:46;7.20;86.10
11043;DHT22;5574;48.786;10.120;2023-04-06T08:05:12;7.30;86.20
11043;DHT22;5574;48.786;10.120;2023-04-06T08:07:39;7.50;86.30
11043;DHT22;5574;48.786;10.120;2023-04-06T08:10:07;7.60;86.90
11043;DHT22;5574;48.786;10.120;2023-04-06T08:12:34;7.70;86.30
11043;DHT22;5574;48.786;10.120;2023-04-06T08:15:03;7.80;85.40
11043;DHT22;5574;48.786;10.120;2023-04-06T08:17:31;7.90;84.50
11043;DHT22;5574;48.786;10.120;2023-04-06T08:19:59;8.10;85.80
11043;DHT22;5574;48.786;10.120;2023-04-06T08:22:26;8.30;84.10
11043;DHT22;5574;48.786;10.120;2023-04-06T08:24:52;8.40;82.40
11043;DHT22;5574;48.786;10.120;2023-04-06T08:27:19;8.50;82.80
11043;DHT22;5574;48.786;10.120;2023-04-06T08:29:46;8.70;79.20
11043;DHT22;5574;48.786;10.120;2023-04-06T08:32:15;8.80;77.10
11043;DHT22;5574;48.786;10.120;2023-04-06T08:34:41;9.00;76.50
11043;DHT22;5574;48.786;10.120;2023-04-06T08:37:08;9.00;74.50
11043;DHT22;5574;48.786;10.120;2023-04-06T08:39:35;9.10;76.30
11043;DHT22;5574;48.786;10.120;2023-04-06T08:42:01;9.30;74.60
11043;DHT22;5574;48.786;10.120;2023-04-06T08:44:29;9.40;73.30
11043;DHT22;5574;48.786;10.120;2023-04-06T08:46:56;9.60;73.50
11043;DHT22;5574;48.786;10.120;2023-04-06T08:49:25;9.60;71.00
11043;DHT22;5574;48.786;10.120;2023-04-06T08:51:52;9.70;72.00
11043;DHT22;5574;48.786;10.120;2023-04-06T08:54:18;9.80;70.20
11043;DHT22;5574;48.786;10.120;2023-04-06T08:56:46;9.80;71.80
11043;DHT22;5574;48.786;10.120;2023-04-06T08:59:14;10.00;71.80
11043;DHT22;5574;48.786;10.120;2023-04-06T09:01:42;10.00;72.20
11043;DHT22;5574;48.786;10.120;2023-04-06T09:04:11;10.10;74.00
11043;DHT22;5574;48.786;10.120;2023-04-06T09:06:39;10.20;71.30
11043;DHT22;5574;48.786;10.120;2023-04-06T09:09:06;10.20;71.40
11043;DHT22;5574;48.786;10.120;2023-04-06T09:11:46;10.20;67.80
11043;DHT22;5574;48.786;10.120;2023-04-06T09:14:13;10.30;68.90
11043;DHT22;5574;48.786;10.120;2023-04-06T09:16:41;10.20;66.10
11043;DHT22;5574;48.786;10.120;2023-04-06T09:19:09;10.30;67.90
11043;DHT22;5574;48.786;10.120;2023-04-06T09:21:36;10.30;63.70
11043;DHT22;5574;48.786;10.120;2023-04-06T09:24:07;10.40;62.10
11043;DHT22;5574;48.786;10.120;2023-04-06T09:26:44;10.60;64.60
11043;DHT22;5574;48.786;10.120;2023-04-06T09:29:21;10.70;60.50
11043;DHT22;5574;48.786;10.120;2023-04-06T09:31:48;10.70;59.90
11043;DHT22;5574;48.786;10.120;2023-04-06T09:34:20;10.80;61.00
11043;DHT22;5574;48.786;10.120;2023-04-06T09:36:47;10.80;59.40
11043;DHT22;5574;48.786;10.120;2023-04-06T09:39:15;10.90;59.20
11043;DHT22;5574;48.786;10.120;2023-04-06T09:41:49;11.00;60.30
11043;DHT22;5574;48.786;10.120;2023-04-06T09:44:16;11.00;59.90
11043;DHT22;5574;48.786;10.120;2023-04-06T09:46:45;11.10;64.80
11043;DHT22;5574;48.786;10.120;2023-04-06T09:49:13;11.10;62.30
11043;DHT22;5574;48.786;10.120;2023-04-06T09:51:41;11.10;61.60
11043;DHT22;5574;48.786;10.120;2023-04-06T09:54:11;11.30;63.80
11043;DHT22;5574;48.786;10.120;2023-04-06T09:56:46;11.50;65.90
11043;DHT22;5574;48.786;10.120;2023-04-06T09:59:16;11.60;63.90
11043;DHT22;5574;48.786;10.120;2023-04-06T10:01:46;11.80;67.90
11043;DHT22;5574;48.786;10.120;2023-04-06T10:04:25;11.90;67.20
11043;DHT22;5574;48.786;10.120;2023-04-06T10:06:54;11.90;63.00
11043;DHT22;5574;48.786;10.120;2023-04-06T10:09:25;12.10;61.40
11043;DHT22;5574;48.786;10.120;2023-04-06T10:11:56;12.10;60.70
11043;DHT22;5574;48.786;10.120;2023-04-06T10:14:24;12.20;60.40
11043;DHT22;5574;48.786;10.120;2023-04-06T10:16:51;12.20;59.50
11043;DHT22;5574;48.786;10.120;2023-04-06T10:19:22;12.30;58.30
11043;DHT22;5574;48.786;10.120;2023-04-06T10:21:54;12.40;58.00
11043;DHT22;5574;48.786;10.120;2023-04-06T10:24:21;12.40;55.90
11043;DHT22;5574;48.786;10.120;2023-04-06T10:26:58;12.30;56.30
11043;DHT22;5574;48.786;10.120;2023-04-06T10:29:25;12.40;56.80
11043;DHT22;5574;48.786;10.120;2023-04-06T10:31:52;12.10;58.70
11043;DHT22;5574;48.786;10.120;2023-04-06T10:34:20;12.20;63.30
11043;DHT22;5574;48.786;10.120;2023-04-06T10:36:47;12.10;66.10
11043;DHT22;5574;48.786;10.120;2023-04-06T10:39:14;12.10;59.00
11043;DHT22;5574;48.786;10.120;2023-04-06T10:41:42;12.30;74.60
11043;DHT22;5574;48.786;10.120;2023-04-06T10:44:20;12.40;62.90
11043;DHT22;5574;48.786;10.120;2023-04-06T10:46:53;12.60;57.90
11043;DHT22;5574;48.786;10.120;2023-04-06T10:49:21;12.80;64.80
11043;DHT22;5574;48.786;10.120;2023-04-06T10:51:51;12.90;61.80
11043;DHT22;5574;48.786;10.120;2023-04-06T10:54:21;13.00;58.30
11043;DHT22;5574;48.786;10.120;2023-04-06T10:56:48;13.10;58.40
11043;DHT22;5574;48.786;10.120;2023-04-06T10:59:19;13.10;60.00
11043;DHT22;5574;48.786;10.120;2023-04-06T11:01:47;13.20;64.80
11043;DHT22;5574;48.786;10.120;2023-04-06T11:04:16;13.30;61.70
11043;DHT22;5574;48.786;10.120;2023-04-06T11:06:46;13.20;57.00
11043;DHT22;5574;48.786;10.120;2023-04-06T11:09:23;13.20;56.50
11043;DHT22;5574;48.786;10.120;2023-04-06T11:11:50;13.10;58.70
11043;DHT22;5574;48.786;10.120;2023-04-06T11:14:16;13.20;58.70
11043;DHT22;5574;48.786;10.120;2023-04-06T11:16:46;12.80;56.40
11043;DHT22;5574;48.786;10.120;2023-04-06T11:19:13;12.70;56.50
11043;DHT22;5574;48.786;10.120;2023-04-06T11:21:41;12.70;56.90
11043;DHT22;5574;48.786;10.120;2023-04-06T11:24:10;12.80;57.30
11043;DHT22;5574;48.786;10.120;2023-04-06T11:26:38;12.70;57.00
11043;DHT22;5574;48.786;10.120;2023-04-06T11:29:05;12.50;56.50
11043;DHT22;5574;48.786;10.120;2023-04-06T11:31:39;12.40;57.50
11043;DHT22;5574;48.786;10.120;2023-04-06T11:34:10;12.70;62.30
11043;DHT22;5574;48.786;10.120;2023-04-06T11:36:40;12.80;55.50
11043;DHT22;5574;48.786;10.120;2023-04-06T11:39:08;12.90;57.40
11043;DHT22;5574;48.786;10.120;2023-04-06T11:41:34;13.10;58.80
11043;DHT22;5574;48.786;10.120;2023-04-06T11:44:01;13.00;54.60
11043;DHT22;5574;48.786;10.120;2023-04-06T11:46:28;13.20;60.30
11043;DHT22;5574;48.786;10.120;2023-04-06T11:48:58;13.00;54.80
11043;DHT22;5574;48.786;10.120;2023-04-06T11:51:27;13.10;56.90
11043;DHT22;5574;48.786;10.120;2023-04-06T11:53:53;13.10;57.40
11043;DHT22;5574;48.786;10.120;2023-04-06T11:56:27;13.50;60.70
11043;DHT22;5574;48.786;10.120;2023-04-06T11:58:56;13.20;55.00
11043;DHT22;5574;48.786;10.120;2023-04-06T12:01:25;13.20;54.20
11043;DHT22;5574;48.786;10.120;2023-04-06T12:03:52;13.30;54.60
11043;DHT22;5574;48.786;10.120;2023-04-06T12:06:19;13.40;59.90
11043;DHT22;5574;48.786;10.120;2023-04-06T12:08:47;13.00;54.00
11043;DHT22;5574;48.786;10.120;2023-04-06T12:11:13;12.80;52.90
11043;DHT22;5574;48.786;10.120;2023-04-06T12:13:40;12.80;55.70
11043;DHT22;5574;48.786;10.120;2023-04-06T12:16:07;12.80;58.70
11043;DHT22;5574;48.786;10.120;2023-04-06T12:18:33;12.80;54.40
11043;DHT22;5574;48.786;10.120;2023-04-06T12:21:00;13.00;56.80
11043;DHT22;5574;48.786;10.120;2023-04-06T12:23:27;13.20;57.60
11043;DHT22;5574;48.786;10.120;2023-04-06T12:25:55;13.00;54.30
11043;DHT22;5574;48.786;10.120;2023-04-06T12:28:21;12.80;55.40
11043;DHT22;5574;48.786;10.120;2023-04-06T12:30:52;12.80;53.60
11043;DHT22;5574;48.786;10.120;2023-04-06T12:33:19;13.10;57.30
11043;DHT22;5574;48.786;10.120;2023-04-06T12:35:46;13.30;55.70
11043;DHT22;5574;48.786;10.120;2023-04-06T12:38:12;13.30;54.00
11043;DHT22;5574;48.786;10.120;2023-04-06T12:40:39;13.50;56.90
11043;DHT22;5574;48.786;10.120;2023-04-06T12:43:07;13.40;54.00
11043;DHT22;5574;48.786;10.120;2023-04-06T12:45:34;13.60;58.80
11043;DHT22;5574;48.786;10.120;2023-04-06T12:48:01;13.70;55.90
11043;DHT22;5574;48.786;10.120;2023-04-06T12:50:28;13.90;56.20
11043;DHT22;5574;48.786;10.120;2023-04-06T12:52:55;13.80;58.20
11043;DHT22;5574;48.786;10.120;2023-04-06T12:55:21;14.00;57.50
11043;DHT22;5574;48.786;10.120;2023-04-06T12:57:48;14.00;56.90
11043;DHT22;5574;48.786;10.120;2023-04-06T13:00:17;14.20;55.80
11043;DHT22;5574;48.786;10.120;2023-04-06T13:02:44;14.20;56.90
11043;DHT22;5574;48.786;10.120;2023-04-06T13:05:13;14.20;58.80
11043;DHT22;5574;48.786;10.120;2023-04-06T13:07:40;14.10;57.40
11043;DHT22;5574;48.786;10.120;2023-04-06T13:10:07;14.00;54.70
11043;DHT22;5574;48.786;10.120;2023-04-06T13:12:34;13.80;54.10
11043;DHT22;5574;48.786;10.120;2023-04-06T13:15:01;13.60;52.20
11043;DHT22;5574;48.786;10.120;2023-04-06T13:17:29;13.50;53.40
11043;DHT22;5574;48.786;10.120;2023-04-06T13:19:56;13.30;56.10
11043;DHT22;5574;48.786;10.120;2023-04-06T13:22:23;13.50;53.80
11043;DHT22;5574;48.786;10.120;2023-04-06T13:24:50;13.50;53.20
11043;DHT22;5574;48.786;10.120;2023-04-06T13:27:16;13.30;54.50
11043;DHT22;5574;48.786;10.120;2023-04-06T13:29:43;13.20;53.00
11043;DHT22;5574;48.786;10.120;2023-04-06T13:32:10;13.10;52.90
11043;DHT22;5574;48.786;10.120;2023-04-06T13:34:38;12.80;52.70
11043;DHT22;5574;48.786;10.120;2023-04-06T13:37:05;12.60;51.90
11043;DHT22;5574;48.786;10.120;2023-04-06T13:39:32;12.70;56.00
11043;DHT22;5574;48.786;10.120;2023-04-06T13:42:07;12.70;53.30
11043;DHT22;5574;48.786;10.120;2023-04-06T13:44:35;12.70;52.10
11043;DHT22;5574;48.786;10.120;2023-04-06T13:47:02;12.60;52.30
11043;DHT22;5574;48.786;10.120;2023-04-06T13:49:28;12.90;55.10
11043;DHT22;5574;48.786;10.120;2023-04-06T13:51:55;13.20;56.40
11043;DHT22;5574;48.786;10.120;2023-04-06T13:54:22;13.00;51.30
11043;DHT22;5574;48.786;10.120;2023-04-06T13:56:48;12.80;53.10
11043;DHT22;5574;48.786;10.120;2023-04-06T13:59:17;12.80;55.10
11043;DHT22;5574;48.786;10.120;2023-04-06T14:01:43;12.60;53.40
11043;DHT22;5574;48.786;10.120;2023-04-06T14:04:10;12.40;52.30
11043;DHT22;5574;48.786;10.120;2023-04-06T14:06:37;12.40;53.00
11043;DHT22;5574;48.786;10.120;2023-04-06T14:09:03;12.50;52.90
11043;DHT22;5574;48.786;10.120;2023-04-06T14:11:31;12.60;53.80
11043;DHT22;5574;48.786;10.120;2023-04-06T14:13:58;12.70;53.40
11043;DHT22;5574;48.786;10.120;2023-04-06T14:16:27;12.80;53.30
11043;DHT22;5574;48.786;10.120;2023-04-06T14:18:53;12.90;53.40
11043;DHT22;5574;48.786;10.120;2023-04-06T14:21:20;13.10;56.30
11043;DHT22;5574;48.786;10.120;2023-04-06T14:23:47;13.20;52.40
11043;DHT22;5574;48.786;10.120;2023-04-06T14:26:13;13.20;56.40
11043;DHT22;5574;48.786;10.120;2023-04-06T14:28:41;13.40;56.50
11043;DHT22;5574;48.786;10.120;2023-04-06T14:31:10;13.40;52.50
11043;DHT22;5574;48.786;10.120;2023-04-06T14:33:39;13.50;53.40
11043;DHT22;5574;48.786;10.120;2023-04-06T14:36:07;13.40;51.10
11043;DHT22;5574;48.786;10.120;2023-04-06T14:38:34;13.50;51.70
11043;DHT22;5574;48.786;10.120;2023-04-06T14:41:01;13.40;53.90
11043;DHT22;5574;48.786;10.120;2023-04-06T14:43:28;13.20;50.90
11043;DHT22;5574;48.786;10.120;2023-04-06T14:45:59;13.20;51.90
11043;DHT22;5574;48.786;10.120;2023-04-06T14:48:25;12.90;51.60
11043;DHT22;5574;48.786;10.120;2023-04-06T14:50:54;12.90;53.10
11043;DHT22;5574;48.786;10.120;2023-04-06T14:53:22;13.10;53.60
11043;DHT22;5574;48.786;10.120;2023-04-06T14:55:48;13.20;50.90
11043;DHT22;5574;48.786;10.120;2023-04-06T14:58:16;13.40;51.10
11043;DHT22;5574;48.786;10.120;2023-04-06T15:00:43;13.70;51.30
11043;DHT22;5574;48.786;10.120;2023-04-06T15:03:10;13.80;50.70
11043;DHT22;5574;48.786;10.120;2023-04-06T15:05:36;13.90;54.60
11043;DHT22;5574;48.786;10.120;2023-04-06T15:08:05;14.10;53.60
11043;DHT22;5574;48.786;10.120;2023-04-06T15:10:32;14.20;51.70
11043;DHT22;5574;48.786;10.120;2023-04-06T15:12:58;14.30;52.70
11043;DHT22;5574;48.786;10.120;2023-04-06T15:15:26;14.10;52.80
11043;DHT22;5574;48.786;10.120;2023-04-06T15:17:52;14.10;53.20
11043;DHT22;5574;48.786;10.120;2023-04-06T15:20:19;14.10;53.70
11043;DHT22;5574;48.786;10.120;2023-04-06T15:22:46;14.10;53.30
11043;DHT22;5574;48.786;10.120;2023-04-06T15:25:14;14.00;51.60
11043;DHT22;5574;48.786;10.120;2023-04-06T15:27:41;14.00;51.20
11043;DHT22;5574;48.786;10.120;2023-04-06T15:30:08;14.00;52.90
11043;DHT22;5574;48.786;10.120;2023-04-06T15:32:35;14.00;52.30
11043;DHT22;5574;48.786;10.120;2023-04-06T15:35:08;13.90;49.70
11043;DHT22;5574;48.786;10.120;2023-04-06T15:37:36;13.70;49.30
11043;DHT22;5574;48.786;10.120;2023-04-06T15:40:03;13.50;48.90